sensor_id;sensor_type;location;lat;lon;timestamp;P1;durP1;ratioP1;P2;durP2;ratioP2
23804;SDS011;12083;52.098;7.582;2022-10-31T07:48:58;22.10;;;13.77;;
23804;SDS011;12083;52.098;7.582;2022-10-31T07:52:02;26.53;;;14.90;;
23804;SDS011;12083;52.098;7.582;2022-10-31T07:54:51;26.13;;;14.30;;
23804;SDS011;12083;52.098;7.582;2022-10-31T07:57:21;31.30;;;14.30;;
23804;SDS011;12083;52.098;7.582;2022-10-31T07:59:47;25.07;;;14.70;;
23804;SDS011;12083;52.098;7.582;2022-10-31T08:02:15;25.60;;;13.17;;
23804;SDS011;12083;52.098;7.582;2022-10-31T08:04:41;24.47;;;13.83;;
23804;SDS011;12083;52.098;7.582;2022-10-31T08:07:25;26.37;;;14.20;;
23804;SDS011;12083;52.098;7.582;2022-10-31T08:24:47;25.50;;;15.63;;
23804;SDS011;12083;52.098;7.582;2022-10-31T08:27:13;22.63;;;14.73;;
23804;SDS011;12083;52.098;7.582;2022-10-31T08:29:39;24.23;;;15.50;;
23804;SDS011;12083;52.098;7.582;2022-10-31T08:32:06;25.43;;;15.33;;
23804;SDS011;12083;52.098;7.582;2022-10-31T08:34:52;25.17;;;15.43;;
23804;SDS011;12083;52.098;7.582;2022-10-31T08:37:36;23.20;;;14.90;;
23804;SDS011;12083;52.098;7.582;2022-10-31T08:40:03;24.40;;;14.03;;
23804;SDS011;12083;52.098;7.582;2022-10-31T08:42:33;26.77;;;17.23;;
23804;SDS011;12083;52.098;7.582;2022-10-31T08:45:00;22.17;;;14.50;;
23804;SDS011;12083;52.098;7.582;2022-10-31T08:47:26;28.00;;;15.00;;
23804;SDS011;12083;52.098;7.582;2022-10-31T08:49:53;20.50;;;13.47;;
23804;SDS011;12083;52.098;7.582;2022-10-31T08:52:22;22.63;;;15.27;;
23804;SDS011;12083;52.098;7.582;2022-10-31T08:54:48;26.13;;;14.90;;
23804;SDS011;12083;52.098;7.582;2022-10-31T08:57:32;24.47;;;16.07;;
23804;SDS011;12083;52.098;7.582;2022-10-31T08:59:58;25.43;;;15.63;;
23804;SDS011;12083;52.098;7.582;2022-10-31T09:02:31;25.23;;;14.50;;
23804;SDS011;12083;52.098;7.582;2022-10-31T09:04:59;31.07;;;18.03;;
23804;SDS011;12083;52.098;7.582;2022-10-31T09:07:24;35.27;;;21.30;;
23804;SDS011;12083;52.098;7.582;2022-10-31T09:09:52;35.40;;;19.03;;
23804;SDS011;12083;52.098;7.582;2022-10-31T09:12:18;34.07;;;17.93;;
23804;SDS011;12083;52.098;7.582;2022-10-31T09:15:02;31.30;;;19.57;;
23804;SDS011;12083;52.098;7.582;2022-10-31T09:17:37;42.10;;;21.07;;
23804;SDS011;12083;52.098;7.582;2022-10-31T09:20:21;38.43;;;20.73;;
23804;SDS011;12083;52.098;7.582;2022-10-31T09:22:54;37.40;;;21.57;;
23804;SDS011;12083;52.098;7.582;2022-10-31T09:25:24;37.43;;;21.83;;
23804;SDS011;12083;52.098;7.582;2022-10-31T09:28:10;33.23;;;21.37;;
23804;SDS011;12083;52.098;7.582;2022-10-31T09:30:37;40.00;;;24.10;;
23804;SDS011;12083;52.098;7.582;2022-10-31T09:33:04;41.47;;;25.40;;
23804;SDS011;12083;52.098;7.582;2022-10-31T09:35:32;52.10;;;26.13;;
23804;SDS011;12083;52.098;7.582;2022-10-31T09:38:00;48.13;;;27.20;;
23804;SDS011;12083;52.098;7.582;2022-10-31T09:40:31;46.87;;;27.50;;
23804;SDS011;12083;52.098;7.582;2022-10-31T09:51:32;48.37;;;25.00;;
23804;SDS011;12083;52.098;7.582;2022-10-31T09:54:21;50.53;;;25.50;;
23804;SDS011;12083;52.098;7.582;2022-10-31T09:57:00;73.77;;;40.60;;
23804;SDS011;12083;52.098;7.582;2022-10-31T09:59:31;46.33;;;23.90;;
23804;SDS011;12083;52.098;7.582;2022-10-31T10:02:01;46.00;;;25.77;;
23804;SDS011;12083;52.098;7.582;2022-10-31T10:04:37;44.60;;;23.83;;
23804;SDS011;12083;52.098;7.582;2022-10-31T10:07:30;42.40;;;23.87;;
23804;SDS011;12083;52.098;7.582;2022-10-31T10:23:46;43.23;;;23.70;;
23804;SDS011;12083;52.098;7.582;2022-10-31T10:26:30;42.87;;;21.57;;
23804;SDS011;12083;52.098;7.582;2022-10-31T10:29:03;40.87;;;23.10;;
23804;SDS011;12083;52.098;7.582;2022-10-31T10:31:52;50.53;;;24.93;;
23804;SDS011;12083;52.098;7.582;2022-10-31T10:34:37;51.27;;;22.97;;
23804;SDS011;12083;52.098;7.582;2022-10-31T10:37:13;41.47;;;22.40;;
23804;SDS011;12083;52.098;7.582;2022-10-31T10:39:50;46.53;;;21.47;;
23804;SDS011;12083;52.098;7.582;2022-10-31T10:42:20;45.20;;;22.83;;
23804;SDS011;12083;52.098;7.582;2022-10-31T10:45:19;42.03;;;22.10;;
23804;SDS011;12083;52.098;7.582;2022-10-31T10:48:10;43.50;;;23.90;;
23804;SDS011;12083;52.098;7.582;2022-10-31T10:50:39;49.30;;;24.27;;
23804;SDS011;12083;52.098;7.582;2022-10-31T10:53:22;44.77;;;23.37;;
23804;SDS011;12083;52.098;7.582;2022-10-31T10:58:35;50.80;;;23.50;;
23804;SDS011;12083;52.098;7.582;2022-10-31T11:01:08;45.83;;;21.00;;
23804;SDS011;12083;52.098;7.582;2022-10-31T11:03:35;38.87;;;23.03;;
23804;SDS011;12083;52.098;7.582;2022-10-31T11:06:01;45.23;;;21.90;;
23804;SDS011;12083;52.098;7.582;2022-10-31T11:14:02;43.47;;;22.33;;
23804;SDS011;12083;52.098;7.582;2022-10-31T11:16:35;39.80;;;24.37;;
23804;SDS011;12083;52.098;7.582;2022-10-31T11:21:37;56.13;;;25.30;;
23804;SDS011;12083;52.098;7.582;2022-10-31T11:24:14;37.27;;;22.23;;
23804;SDS011;12083;52.098;7.582;2022-10-31T11:26:42;42.87;;;25.27;;
23804;SDS011;12083;52.098;7.582;2022-10-31T11:29:24;48.63;;;23.50;;
23804;SDS011;12083;52.098;7.582;2022-10-31T11:31:57;54.60;;;23.87;;
23804;SDS011;12083;52.098;7.582;2022-10-31T11:37:15;45.30;;;23.10;;
23804;SDS011;12083;52.098;7.582;2022-10-31T11:39:44;52.33;;;22.67;;
23804;SDS011;12083;52.098;7.582;2022-10-31T11:42:19;41.00;;;22.67;;
23804;SDS011;12083;52.098;7.582;2022-10-31T11:44:47;45.73;;;23.03;;
23804;SDS011;12083;52.098;7.582;2022-10-31T11:47:15;29.80;;;21.17;;
23804;SDS011;12083;52.098;7.582;2022-10-31T11:49:43;39.40;;;21.03;;
23804;SDS011;12083;52.098;7.582;2022-10-31T11:52:19;43.23;;;23.80;;
23804;SDS011;12083;52.098;7.582;2022-10-31T11:57:25;41.70;;;22.90;;
23804;SDS011;12083;52.098;7.582;2022-10-31T11:59:54;36.50;;;19.77;;
23804;SDS011;12083;52.098;7.582;2022-10-31T12:02:22;45.57;;;23.00;;
23804;SDS011;12083;52.098;7.582;2022-10-31T12:07:58;44.20;;;22.17;;
23804;SDS011;12083;52.098;7.582;2022-10-31T12:10:25;37.57;;;21.20;;
23804;SDS011;12083;52.098;7.582;2022-10-31T12:15:53;45.47;;;21.40;;
23804;SDS011;12083;52.098;7.582;2022-10-31T12:19:13;41.07;;;20.60;;
23804;SDS011;12083;52.098;7.582;2022-10-31T12:32:55;38.50;;;19.27;;
23804;SDS011;12083;52.098;7.582;2022-10-31T12:49:33;25.57;;;15.20;;
23804;SDS011;12083;52.098;7.582;2022-10-31T12:57:51;30.57;;;15.60;;
23804;SDS011;12083;52.098;7.582;2022-10-31T13:00:19;26.93;;;15.80;;
23804;SDS011;12083;52.098;7.582;2022-10-31T13:10:43;45.70;;;19.83;;
23804;SDS011;12083;52.098;7.582;2022-10-31T13:13:33;41.33;;;17.30;;
23804;SDS011;12083;52.098;7.582;2022-10-31T13:16:02;31.03;;;17.27;;
23804;SDS011;12083;52.098;7.582;2022-10-31T13:18:33;32.87;;;16.43;;
23804;SDS011;12083;52.098;7.582;2022-10-31T13:21:10;35.63;;;15.73;;
23804;SDS011;12083;52.098;7.582;2022-10-31T13:23:42;31.93;;;18.10;;
23804;SDS011;12083;52.098;7.582;2022-10-31T13:26:12;35.97;;;17.00;;
23804;SDS011;12083;52.098;7.582;2022-10-31T13:28:48;39.03;;;18.00;;
23804;SDS011;12083;52.098;7.582;2022-10-31T13:31:20;35.90;;;16.77;;
23804;SDS011;12083;52.098;7.582;2022-10-31T13:36:25;44.77;;;18.73;;
23804;SDS011;12083;52.098;7.582;2022-10-31T13:41:49;32.10;;;17.40;;
23804;SDS011;12083;52.098;7.582;2022-10-31T13:44:26;55.17;;;18.87;;
23804;SDS011;12083;52.098;7.582;2022-10-31T13:46:53;47.83;;;18.10;;
